createdAt,value
2018-05-12T00:00:17.961Z,0.00
2018-05-12T00:01:18.148Z,0.00
2018-05-12T00:02:18.338Z,0.00
2018-05-12T00:03:18.527Z,0.00
2018-05-12T00:04:18.714Z,0.00
2018-05-12T00:05:18.905Z,0.00
2018-05-12T00:06:19.094Z,0.00
2018-05-12T00:07:19.280Z,0.00
2018-05-12T00:08:19.469Z,0.00
2018-05-12T00:09:19.662Z,0.00
2018-05-12T00:10:19.848Z,0.00
2018-05-12T00:11:20.037Z,0.00
2018-05-12T00:12:20.228Z,0.00
2018-05-12T00:13:20.415Z,0.00
2018-05-12T00:14:20.602Z,0.00
2018-05-12T00:15:20.793Z,0.00
2018-05-12T00:16:20.980Z,0.00
2018-05-12T00:17:21.172Z,0.00
2018-05-12T00:18:21.357Z,0.00
2018-05-12T00:19:21.546Z,0.00
2018-05-12T00:20:21.736Z,0.00
2018-05-12T00:21:21.925Z,0.00
2018-05-12T00:22:22.113Z,0.00
2018-05-12T00:23:22.301Z,0.00
2018-05-12T00:24:22.491Z,0.00
2018-05-12T00:25:22.679Z,0.00
2018-05-12T00:26:22.867Z,0.00
2018-05-12T00:27:23.057Z,0.00
2018-05-12T00:28:23.244Z,0.00
2018-05-12T00:29:23.433Z,0.00
2018-05-12T00:30:23.624Z,0.00
2018-05-12T00:31:23.815Z,60.00
2018-05-12T00:32:23.995Z,4.00
2018-05-12T00:33:24.186Z,4.00
2018-05-12T00:34:24.377Z,4.00
2018-05-12T00:35:24.560Z,4.00
2018-05-12T00:36:24.749Z,4.00
2018-05-12T00:37:24.938Z,4.00
2018-05-12T00:38:25.126Z,4.00
2018-05-12T00:39:25.314Z,4.00
2018-05-12T00:40:25.500Z,0.00
2018-05-12T00:41:25.690Z,0.00
2018-05-12T00:42:25.947Z,0.00
2018-05-12T00:43:26.069Z,0.00
2018-05-12T00:44:26.256Z,0.00
2018-05-12T00:45:26.444Z,0.00
2018-05-12T00:46:26.636Z,0.00
2018-05-12T00:47:26.823Z,0.00
2018-05-12T00:48:27.011Z,0.00
2018-05-12T00:49:27.200Z,0.00
2018-05-12T00:50:27.389Z,0.00
2018-05-12T00:51:27.576Z,0.00
2018-05-12T00:52:27.771Z,0.00
2018-05-12T00:53:27.955Z,0.00
2018-05-12T00:54:28.141Z,0.00
2018-05-12T00:55:28.330Z,0.00
2018-05-12T00:56:28.519Z,0.00
2018-05-12T00:57:28.707Z,0.00
2018-05-12T00:58:28.895Z,0.00
2018-05-12T00:59:29.086Z,0.00
2018-05-12T01:00:29.273Z,0.00
2018-05-12T01:01:29.462Z,0.00
2018-05-12T01:02:29.651Z,0.00
2018-05-12T01:03:29.841Z,0.00
2018-05-12T01:04:30.030Z,0.00
2018-05-12T01:05:30.217Z,0.00
2018-05-12T01:06:30.410Z,0.00
2018-05-12T01:07:30.593Z,0.00
2018-05-12T01:08:30.783Z,0.00
2018-05-12T01:09:30.978Z,0.00
2018-05-12T01:10:31.160Z,0.00
2018-05-12T01:11:31.347Z,0.00
2018-05-12T01:12:31.538Z,0.00
2018-05-12T01:13:31.825Z,0.00
2018-05-12T01:14:31.913Z,0.00
2018-05-12T01:15:32.103Z,0.00
2018-05-12T01:16:32.290Z,0.00
2018-05-12T01:17:32.481Z,0.00
2018-05-12T01:18:32.666Z,0.00
2018-05-12T01:19:32.877Z,0.00
2018-05-12T01:20:33.042Z,0.00
2018-05-12T01:21:33.231Z,0.00
2018-05-12T01:22:33.420Z,0.00
2018-05-12T01:23:33.616Z,0.00
2018-05-12T01:24:33.798Z,0.00
2018-05-12T01:25:33.992Z,0.00
2018-05-12T01:26:34.176Z,0.00
2018-05-12T01:27:34.365Z,0.00
2018-05-12T01:28:34.552Z,0.00
2018-05-12T01:29:34.744Z,0.00
2018-05-12T01:30:34.929Z,0.00
2018-05-12T01:31:35.119Z,0.00
2018-05-12T01:32:35.307Z,0.00
2018-05-12T01:33:35.495Z,0.00
2018-05-12T01:34:35.683Z,0.00
2018-05-12T01:35:35.871Z,0.00
2018-05-12T01:36:36.059Z,0.00
2018-05-12T01:37:36.248Z,0.00
2018-05-12T01:38:36.435Z,0.00
2018-05-12T01:39:36.627Z,0.00
2018-05-12T01:40:36.813Z,0.00
2018-05-12T01:41:37.002Z,0.00
2018-05-12T01:42:37.191Z,0.00
2018-05-12T01:43:37.378Z,0.00
2018-05-12T01:44:37.567Z,0.00
2018-05-12T01:45:37.755Z,0.00
2018-05-12T01:46:37.943Z,0.00
2018-05-12T01:47:38.130Z,0.00
2018-05-12T01:48:38.320Z,0.00
2018-05-12T01:49:38.511Z,0.00
2018-05-12T01:50:38.696Z,0.00
2018-05-12T01:51:38.885Z,0.00
2018-05-12T01:52:39.073Z,0.00
2018-05-12T01:53:39.261Z,0.00
2018-05-12T01:54:39.450Z,0.00
2018-05-12T01:55:39.638Z,0.00
2018-05-12T01:56:39.825Z,0.00
2018-05-12T01:57:40.015Z,0.00
2018-05-12T01:58:40.203Z,0.00
2018-05-12T01:59:40.392Z,0.00
2018-05-12T02:00:40.581Z,0.00
2018-05-12T02:01:40.769Z,0.00
2018-05-12T02:02:40.956Z,0.00
2018-05-12T02:03:41.146Z,0.00
2018-05-12T02:04:41.332Z,0.00
2018-05-12T02:05:41.520Z,0.00
2018-05-12T02:06:41.710Z,0.00
2018-05-12T02:07:41.896Z,0.00
2018-05-12T02:08:42.085Z,0.00
2018-05-12T02:09:42.274Z,0.00
2018-05-12T02:10:42.463Z,0.00
2018-05-12T02:11:42.650Z,0.00
2018-05-12T02:12:42.840Z,0.00
2018-05-12T02:13:43.029Z,0.00
2018-05-12T02:14:43.216Z,0.00
2018-05-12T02:15:43.415Z,0.00
2018-05-12T02:16:43.596Z,0.00
2018-05-12T02:17:43.784Z,0.00
2018-05-12T02:18:43.973Z,0.00
2018-05-12T02:19:44.161Z,0.00
2018-05-12T02:20:44.420Z,0.00
2018-05-12T02:21:44.537Z,0.00
2018-05-12T02:22:44.727Z,0.00
2018-05-12T02:23:44.917Z,0.00
2018-05-12T02:24:45.103Z,0.00
2018-05-12T02:25:45.293Z,0.00
2018-05-12T02:26:45.484Z,0.00
2018-05-12T02:27:45.670Z,0.00
2018-05-12T02:28:45.858Z,0.00
2018-05-12T02:29:46.047Z,0.00
2018-05-12T02:30:46.236Z,0.00
2018-05-12T02:31:46.425Z,0.00
2018-05-12T02:32:46.614Z,60.00
2018-05-12T02:33:46.800Z,4.00
2018-05-12T02:34:46.988Z,4.00
2018-05-12T02:35:47.175Z,4.00
2018-05-12T02:36:47.362Z,4.00
2018-05-12T02:37:47.557Z,4.00
2018-05-12T02:38:47.740Z,4.00
2018-05-12T02:39:47.928Z,4.00
2018-05-12T02:40:48.117Z,4.00
2018-05-12T02:41:48.307Z,0.00
2018-05-12T02:42:48.494Z,0.00
2018-05-12T02:43:48.679Z,0.00
2018-05-12T02:44:48.866Z,0.00
2018-05-12T02:45:49.055Z,0.00
2018-05-12T02:46:49.242Z,0.00
2018-05-12T02:47:49.430Z,0.00
2018-05-12T02:48:49.617Z,0.00
2018-05-12T02:49:49.807Z,0.00
2018-05-12T02:50:49.995Z,0.00
2018-05-12T02:51:50.182Z,0.00
2018-05-12T02:52:50.374Z,0.00
2018-05-12T02:53:50.558Z,0.00
2018-05-12T02:54:50.750Z,0.00
2018-05-12T02:55:50.933Z,0.00
2018-05-12T02:56:51.120Z,4.00
2018-05-12T02:57:51.309Z,4.00
2018-05-12T02:58:51.498Z,0.00
2018-05-12T02:59:51.686Z,0.00
2018-05-12T03:00:51.874Z,4.00
2018-05-12T03:01:52.063Z,4.00
2018-05-12T03:02:52.251Z,4.00
2018-05-12T03:03:52.439Z,68.00
2018-05-12T03:04:52.626Z,12.00
2018-05-12T03:05:52.819Z,12.00
2018-05-12T03:06:53.004Z,12.00
2018-05-12T03:07:53.191Z,16.00
2018-05-12T03:08:53.377Z,16.00
2018-05-12T03:09:53.575Z,20.00
2018-05-12T03:10:53.758Z,20.00
2018-05-12T03:11:53.946Z,20.00
2018-05-12T03:12:54.133Z,20.00
2018-05-12T03:13:54.323Z,24.00
2018-05-12T03:14:54.513Z,24.00
2018-05-12T03:15:54.699Z,32.00
2018-05-12T03:16:54.887Z,32.00
2018-05-12T03:17:55.076Z,40.00
2018-05-12T03:18:55.263Z,44.00
2018-05-12T03:19:55.452Z,48.00
2018-05-12T03:20:55.639Z,56.00
2018-05-12T03:21:55.826Z,64.00
2018-05-12T03:22:56.015Z,72.00
2018-05-12T03:23:56.203Z,88.00
2018-05-12T03:24:56.390Z,100.00
2018-05-12T03:25:56.577Z,108.00
2018-05-12T03:26:56.766Z,120.00
2018-05-12T03:27:56.957Z,136.00
2018-05-12T03:28:57.140Z,152.00
2018-05-12T03:29:57.328Z,168.00
2018-05-12T03:30:57.531Z,184.00
2018-05-12T03:31:57.707Z,196.00
2018-05-12T03:32:57.893Z,216.00
2018-05-12T03:33:58.083Z,240.00
2018-05-12T03:34:58.270Z,264.00
2018-05-12T03:35:58.459Z,292.00
2018-05-12T03:36:58.647Z,316.00
2018-05-12T03:37:58.834Z,344.00
2018-05-12T03:38:59.024Z,376.00
2018-05-12T03:39:59.210Z,412.00
2018-05-12T03:40:59.397Z,444.00
2018-05-12T03:41:59.591Z,484.00
2018-05-12T03:42:59.779Z,524.00
2018-05-12T03:43:59.961Z,568.00
2018-05-12T03:45:00.149Z,608.00
2018-05-12T03:46:00.335Z,656.00
2018-05-12T03:47:00.522Z,704.00
2018-05-12T03:48:00.711Z,756.00
2018-05-12T03:49:00.899Z,808.00
2018-05-12T03:50:01.088Z,864.00
2018-05-12T03:51:01.277Z,924.00
2018-05-12T03:52:01.464Z,980.00
2018-05-12T03:53:01.651Z,1040.00
2018-05-12T03:54:01.839Z,1100.00
2018-05-12T03:55:02.026Z,1164.00
2018-05-12T03:56:02.217Z,1228.00
2018-05-12T03:57:02.403Z,1300.00
2018-05-12T03:58:02.591Z,1372.00
2018-05-12T03:59:02.778Z,1448.00
2018-05-12T04:00:03.079Z,1524.00
2018-05-12T04:01:03.198Z,1608.00
2018-05-12T04:02:03.437Z,1696.00
2018-05-12T04:03:03.625Z,1780.00
2018-05-12T04:04:03.812Z,1876.00
2018-05-12T04:05:04.000Z,1980.00
2018-05-12T04:06:04.188Z,2084.00
2018-05-12T04:07:04.376Z,2188.00
2018-05-12T04:08:04.563Z,2300.00
2018-05-12T04:09:04.751Z,2412.00
2018-05-12T04:10:04.939Z,2536.00
2018-05-12T04:11:05.125Z,2672.00
2018-05-12T04:12:05.319Z,2820.00
2018-05-12T04:13:05.501Z,2976.00
2018-05-12T04:14:05.685Z,3148.00
2018-05-12T04:15:05.879Z,3324.00
2018-05-12T04:16:06.063Z,3508.00
2018-05-12T04:17:06.249Z,3708.00
2018-05-12T04:18:06.437Z,3932.00
2018-05-12T04:19:06.623Z,4156.00
2018-05-12T04:20:06.812Z,4388.00
2018-05-12T04:21:07.143Z,4648.00
2018-05-12T04:22:07.184Z,5800.00
2018-05-12T04:23:07.371Z,6324.00
2018-05-12T04:24:07.561Z,6872.00
2018-05-12T04:25:07.749Z,7500.00
2018-05-12T04:26:07.935Z,7832.00
2018-05-12T04:27:08.124Z,8464.00
2018-05-12T04:28:08.312Z,9060.00
2018-05-12T04:29:08.499Z,9492.00
2018-05-12T04:30:08.686Z,10124.00
2018-05-12T04:31:08.875Z,10696.00
2018-05-12T04:32:09.063Z,11528.00
2018-05-12T04:33:09.250Z,12704.00
2018-05-12T04:34:09.439Z,13312.00
2018-05-12T04:35:09.625Z,13600.00
2018-05-12T04:36:09.812Z,14656.00
2018-05-12T04:37:10.003Z,15552.00
2018-05-12T04:38:10.196Z,16992.00
2018-05-12T04:39:10.385Z,17952.00
2018-05-12T04:40:10.568Z,18592.00
2018-05-12T04:41:10.758Z,19648.00
2018-05-12T04:42:10.947Z,21056.00
2018-05-12T04:43:11.153Z,21888.00
2018-05-12T04:44:11.326Z,22752.00
2018-05-12T04:45:11.517Z,24064.00
2018-05-12T04:46:11.711Z,25216.00
2018-05-12T04:47:11.898Z,25600.00
2018-05-12T04:48:12.090Z,26144.00
2018-05-12T04:49:12.280Z,27040.00
2018-05-12T04:50:12.472Z,27936.00
2018-05-12T04:51:12.664Z,28384.00
2018-05-12T04:52:12.855Z,29024.00
2018-05-12T04:53:13.048Z,30496.00
2018-05-12T04:54:13.248Z,32000.00
2018-05-12T04:55:13.439Z,32736.00
2018-05-12T04:56:13.629Z,32832.00
2018-05-12T04:57:13.821Z,33056.00
2018-05-12T04:58:14.013Z,33472.00
2018-05-12T04:59:14.203Z,33664.00
2018-05-12T05:00:14.398Z,34176.00
2018-05-12T05:01:14.591Z,34688.00
2018-05-12T05:02:14.785Z,35104.00
2018-05-12T05:03:14.979Z,36032.00
2018-05-12T05:04:15.173Z,37312.00
2018-05-12T05:05:15.368Z,37760.00
2018-05-12T05:06:15.561Z,37888.00
2018-05-12T05:07:15.757Z,38368.00
2018-05-12T05:08:16.014Z,38784.00
2018-05-12T05:09:16.151Z,39136.00
2018-05-12T05:10:16.347Z,40160.00
2018-05-12T05:11:16.542Z,41376.00
2018-05-12T05:12:16.734Z,41696.00
2018-05-12T05:13:16.931Z,42784.00
2018-05-12T05:14:17.128Z,43584.00
2018-05-12T05:15:17.351Z,44512.00
2018-05-12T05:16:17.520Z,44576.00
2018-05-12T05:17:17.715Z,46208.00
2018-05-12T05:18:17.912Z,47040.00
2018-05-12T05:19:18.110Z,47488.00
2018-05-12T05:20:18.307Z,46976.00
2018-05-12T05:21:18.580Z,46944.00
2018-05-12T05:22:18.703Z,47488.00
2018-05-12T05:23:18.901Z,48448.00
2018-05-12T05:24:19.105Z,49280.00
2018-05-12T05:25:19.298Z,49856.00
2018-05-12T05:26:19.497Z,50144.00
2018-05-12T05:27:19.697Z,50080.00
2018-05-12T05:28:19.894Z,50080.00
2018-05-12T05:29:20.091Z,50592.00
2018-05-12T05:30:20.289Z,51584.00
2018-05-12T05:31:20.488Z,52160.00
2018-05-12T05:32:20.687Z,52800.00
2018-05-12T05:33:20.886Z,52128.00
2018-05-12T05:34:21.084Z,52448.00
2018-05-12T05:35:21.324Z,53920.00
2018-05-12T05:36:21.481Z,53952.00
2018-05-12T05:37:21.683Z,54848.00
2018-05-12T05:38:21.884Z,56128.00
2018-05-12T05:39:22.084Z,55872.00
2018-05-12T05:40:22.286Z,56224.00
2018-05-12T05:41:22.486Z,55360.00
2018-05-12T05:42:22.690Z,53216.00
2018-05-12T05:43:22.891Z,52608.00
2018-05-12T05:44:23.089Z,55328.00
2018-05-12T05:45:23.289Z,57984.00
2018-05-12T05:46:23.491Z,59712.00
2018-05-12T05:47:23.691Z,58304.00
2018-05-12T05:48:23.893Z,58400.00
2018-05-12T05:49:24.096Z,57792.00
2018-05-12T05:50:24.296Z,58016.00
2018-05-12T05:51:24.498Z,58368.00
2018-05-12T05:52:24.702Z,58592.00
2018-05-12T05:53:24.903Z,60544.00
2018-05-12T05:54:25.111Z,61344.00
2018-05-12T05:55:25.310Z,62688.00
2018-05-12T05:56:25.512Z,64096.00
2018-05-12T05:57:25.715Z,64928.00
2018-05-12T05:58:25.997Z,65248.00
2018-05-12T05:59:26.124Z,65280.00
2018-05-12T06:00:26.324Z,65760.00
2018-05-12T06:01:26.525Z,66304.00
2018-05-12T06:02:26.728Z,67680.00
2018-05-12T06:03:26.929Z,69600.00
2018-05-12T06:04:27.133Z,70336.00
2018-05-12T06:05:27.340Z,71840.00
2018-05-12T06:06:27.538Z,73536.00
2018-05-12T06:07:27.743Z,72928.00
2018-05-12T06:08:27.946Z,72992.00
2018-05-12T06:09:28.148Z,73568.00
2018-05-12T06:10:28.355Z,73056.00
2018-05-12T06:11:28.554Z,74464.00
2018-05-12T06:12:28.758Z,74080.00
2018-05-12T06:13:28.959Z,75840.00
2018-05-12T06:14:29.165Z,77568.00
2018-05-12T06:15:29.371Z,78528.00
2018-05-12T06:16:29.575Z,80224.00
2018-05-12T06:17:29.780Z,80864.00
2018-05-12T06:18:29.983Z,81408.00
2018-05-12T06:19:30.187Z,81760.00
2018-05-12T06:20:30.390Z,82400.00
2018-05-12T06:21:30.596Z,81504.00
2018-05-12T06:22:30.799Z,82176.00
2018-05-12T06:23:31.007Z,83968.00
2018-05-12T06:24:31.209Z,83936.00
2018-05-12T06:25:31.414Z,84192.00
2018-05-12T06:26:31.619Z,85888.00
2018-05-12T06:27:31.822Z,87264.00
2018-05-12T06:28:32.028Z,88896.00
2018-05-12T06:29:32.233Z,89472.00
2018-05-12T06:30:32.441Z,90400.00
2018-05-12T06:31:32.645Z,91904.00
2018-05-12T06:32:32.851Z,92736.00
2018-05-12T06:33:33.132Z,92480.00
2018-05-12T06:34:33.259Z,92960.00
2018-05-12T06:35:33.462Z,96160.00
2018-05-12T06:36:33.667Z,96480.00
2018-05-12T06:37:33.873Z,96640.00
2018-05-12T06:38:34.077Z,97920.00
2018-05-12T06:39:34.283Z,99168.00
2018-05-12T06:40:34.486Z,99616.00
2018-05-12T06:41:34.693Z,101056.00
2018-05-12T06:42:34.898Z,99488.00
2018-05-12T06:43:35.103Z,98848.00
2018-05-12T06:44:35.310Z,99680.00
2018-05-12T06:45:35.513Z,96288.00
2018-05-12T06:46:35.718Z,92608.00
2018-05-12T06:47:35.921Z,96192.00
2018-05-12T06:48:36.126Z,96064.00
2018-05-12T06:49:36.334Z,95072.00
2018-05-12T06:50:36.539Z,93536.00
2018-05-12T06:51:36.745Z,93536.00
2018-05-12T06:52:36.951Z,93536.00
2018-05-12T06:53:37.157Z,92448.00
2018-05-12T06:54:37.361Z,94432.00
2018-05-12T06:55:37.566Z,94880.00
2018-05-12T06:56:37.771Z,95744.00
2018-05-12T06:57:37.975Z,99104.00
2018-05-12T06:58:38.181Z,99968.00
2018-05-12T06:59:38.387Z,100512.00
2018-05-12T07:00:38.595Z,100928.00
2018-05-12T07:01:38.801Z,100224.00
2018-05-12T07:02:39.007Z,97824.00
2018-05-12T07:03:39.212Z,99712.00
2018-05-12T07:04:39.417Z,102176.00
2018-05-12T07:05:39.624Z,101888.00
2018-05-12T07:06:39.829Z,99680.00
2018-05-12T07:07:40.038Z,102176.00
2018-05-12T07:08:40.244Z,103520.00
2018-05-12T07:09:40.451Z,101312.00
2018-05-12T07:10:40.654Z,100896.00
2018-05-12T07:11:40.860Z,101824.00
2018-05-12T07:12:41.066Z,99264.00
2018-05-12T07:13:41.278Z,99328.00
2018-05-12T07:14:41.480Z,99104.00
2018-05-12T07:15:41.687Z,100384.00
2018-05-12T07:16:41.893Z,100384.00
2018-05-12T07:17:42.099Z,99168.00
2018-05-12T07:18:42.306Z,100224.00
2018-05-12T07:19:42.513Z,99648.00
2018-05-12T07:20:42.793Z,99936.00
2018-05-12T07:21:42.927Z,100352.00
2018-05-12T07:22:43.135Z,99616.00
2018-05-12T07:23:43.343Z,100480.00
2018-05-12T07:24:43.552Z,102368.00
2018-05-12T07:25:43.756Z,103360.00
2018-05-12T07:26:43.967Z,103840.00
2018-05-12T07:27:44.168Z,103328.00
2018-05-12T07:28:44.377Z,102656.00
2018-05-12T07:29:44.611Z,102624.00
2018-05-12T07:30:44.791Z,102144.00
2018-05-12T07:31:44.997Z,102112.00
2018-05-12T07:32:45.203Z,100128.00
2018-05-12T07:33:45.409Z,100544.00
2018-05-12T07:34:45.620Z,101280.00
2018-05-12T07:35:45.824Z,100672.00
2018-05-12T07:36:46.034Z,100672.00
2018-05-12T07:37:46.237Z,100160.00
2018-05-12T07:38:46.443Z,100704.00
2018-05-12T07:39:46.652Z,99968.00
2018-05-12T07:40:46.858Z,100576.00
2018-05-12T07:41:47.065Z,101344.00
2018-05-12T07:42:47.270Z,100512.00
2018-05-12T07:43:47.476Z,101376.00
2018-05-12T07:44:47.684Z,100416.00
2018-05-12T07:45:47.888Z,98208.00
2018-05-12T07:46:48.100Z,99360.00
2018-05-12T07:47:48.304Z,99808.00
2018-05-12T07:48:48.512Z,100960.00
2018-05-12T07:49:48.719Z,100512.00
2018-05-12T07:50:48.925Z,100800.00
2018-05-12T07:51:49.132Z,100704.00
2018-05-12T07:52:49.338Z,102976.00
2018-05-12T07:53:49.546Z,105344.00
2018-05-12T07:54:49.756Z,106336.00
2018-05-12T07:55:49.960Z,107072.00
2018-05-12T07:56:50.250Z,107488.00
2018-05-12T07:57:50.374Z,108768.00
2018-05-12T07:58:50.580Z,108448.00
2018-05-12T07:59:50.789Z,108352.00
2018-05-12T08:00:50.993Z,107200.00
2018-05-12T08:01:51.199Z,106336.00
2018-05-12T08:02:51.407Z,107744.00
2018-05-12T08:03:51.612Z,107168.00
2018-05-12T08:04:51.817Z,105888.00
2018-05-12T08:05:52.024Z,109440.00
2018-05-12T08:06:52.232Z,108704.00
2018-05-12T08:07:52.436Z,107552.00
2018-05-12T08:08:52.642Z,107296.00
2018-05-12T08:09:52.850Z,107104.00
2018-05-12T08:10:53.055Z,104320.00
2018-05-12T08:11:53.263Z,103072.00
2018-05-12T08:12:53.528Z,103200.00
2018-05-12T08:13:53.674Z,101152.00
2018-05-12T08:14:53.880Z,104256.00
2018-05-12T08:15:54.086Z,107872.00
2018-05-12T08:16:54.292Z,109056.00
2018-05-12T08:17:54.499Z,110912.00
2018-05-12T08:18:54.705Z,111296.00
2018-05-12T08:19:54.912Z,111040.00
2018-05-12T08:20:55.117Z,110912.00
2018-05-12T08:21:55.323Z,111200.00
2018-05-12T08:22:55.532Z,110816.00
2018-05-12T08:23:55.741Z,110048.00
2018-05-12T08:24:55.947Z,111104.00
2018-05-12T08:25:56.151Z,111936.00
2018-05-12T08:26:56.412Z,109920.00
2018-05-12T08:27:56.564Z,110336.00
2018-05-12T08:28:56.773Z,109824.00
2018-05-12T08:29:56.979Z,109792.00
2018-05-12T08:30:57.185Z,109792.00
2018-05-12T08:31:57.393Z,108832.00
2018-05-12T08:32:57.602Z,112480.00
2018-05-12T08:33:57.811Z,112832.00
2018-05-12T08:34:58.016Z,114176.00
2018-05-12T08:35:58.221Z,115360.00
2018-05-12T08:36:58.428Z,116352.00
2018-05-12T08:37:58.640Z,118016.00
2018-05-12T08:38:58.841Z,119520.00
2018-05-12T08:39:59.049Z,120384.00
2018-05-12T08:40:59.256Z,120416.00
2018-05-12T08:41:59.461Z,121120.00
2018-05-12T08:42:59.669Z,120096.00
2018-05-12T08:43:59.876Z,120896.00
2018-05-12T08:45:00.084Z,120576.00
2018-05-12T08:46:00.291Z,122176.00
2018-05-12T08:47:00.500Z,124352.00
2018-05-12T08:48:00.703Z,122464.00
2018-05-12T08:49:00.908Z,121600.00
2018-05-12T08:50:01.115Z,121920.00
2018-05-12T08:51:01.324Z,123648.00
2018-05-12T08:52:01.527Z,125600.00
2018-05-12T08:53:01.735Z,125472.00
2018-05-12T08:54:01.937Z,119872.00
2018-05-12T08:55:02.143Z,118304.00
2018-05-12T08:56:02.348Z,119552.00
2018-05-12T08:57:02.554Z,120128.00
2018-05-12T08:58:02.761Z,112704.00
2018-05-12T08:59:02.964Z,112032.00
2018-05-12T09:00:03.168Z,120576.00
2018-05-12T09:01:03.373Z,124928.00
2018-05-12T09:02:03.576Z,126112.00
2018-05-12T09:03:03.780Z,124832.00
2018-05-12T09:04:03.983Z,126048.00
2018-05-12T09:05:04.187Z,124480.00
2018-05-12T09:06:04.392Z,122592.00
2018-05-12T09:07:04.599Z,122048.00
2018-05-12T09:08:04.801Z,120800.00
2018-05-12T09:09:05.007Z,121696.00
2018-05-12T09:10:05.209Z,122304.00
2018-05-12T09:11:05.414Z,24320.00
2018-05-12T09:12:05.618Z,45696.00
2018-05-12T09:13:05.822Z,20128.00
2018-05-12T09:14:06.026Z,21376.00
2018-05-12T09:15:06.230Z,23936.00
2018-05-12T09:16:06.434Z,26272.00
2018-05-12T09:17:06.637Z,116288.00
2018-05-12T09:18:06.838Z,111168.00
2018-05-12T09:19:07.041Z,111904.00
2018-05-12T09:20:07.244Z,111648.00
2018-05-12T09:21:07.447Z,113120.00
2018-05-12T09:22:07.650Z,113024.00
2018-05-12T09:23:07.853Z,106336.00
2018-05-12T09:24:08.058Z,90432.00
2018-05-12T09:25:08.259Z,68768.00
2018-05-12T09:26:08.463Z,17456.00
2018-05-12T09:27:08.665Z,40256.00
2018-05-12T09:28:08.869Z,42784.00
2018-05-12T09:29:09.071Z,19264.00
2018-05-12T09:30:09.274Z,32384.00
2018-05-12T09:31:09.477Z,39584.00
2018-05-12T09:32:09.678Z,40608.00
2018-05-12T09:33:09.881Z,41216.00
2018-05-12T09:34:10.085Z,41696.00
2018-05-12T09:35:10.286Z,41568.00
2018-05-12T09:36:10.486Z,41984.00
2018-05-12T09:37:10.716Z,41472.00
2018-05-12T09:38:10.889Z,41056.00
2018-05-12T09:39:11.090Z,41120.00
2018-05-12T09:40:11.295Z,40928.00
2018-05-12T09:41:11.495Z,41824.00
2018-05-12T09:42:11.740Z,42304.00
2018-05-12T09:43:11.901Z,43200.00
2018-05-12T09:44:12.100Z,45856.00
2018-05-12T09:45:12.303Z,47520.00
2018-05-12T09:46:12.505Z,52192.00
2018-05-12T09:47:12.708Z,66176.00
2018-05-12T09:48:12.912Z,95680.00
2018-05-12T09:49:13.109Z,124096.00
2018-05-12T09:50:13.310Z,119520.00
2018-05-12T09:51:13.513Z,101280.00
2018-05-12T09:52:13.787Z,100448.00
2018-05-12T09:53:13.915Z,93056.00
2018-05-12T09:54:14.116Z,80640.00
2018-05-12T09:55:14.319Z,72768.00
2018-05-12T09:56:14.526Z,18856.00
2018-05-12T09:57:14.720Z,18408.00
2018-05-12T09:58:14.921Z,24640.00
2018-05-12T09:59:15.124Z,27808.00
2018-05-12T10:00:15.327Z,27392.00
2018-05-12T10:01:15.524Z,26144.00
2018-05-12T10:02:15.726Z,23968.00
2018-05-12T10:03:15.925Z,22400.00
2018-05-12T10:04:16.125Z,21888.00
2018-05-12T10:05:16.325Z,20480.00
2018-05-12T10:06:16.530Z,16864.00
2018-05-12T10:07:16.725Z,15740.00
2018-05-12T10:08:16.925Z,15516.00
2018-05-12T10:09:17.126Z,14996.00
2018-05-12T10:10:17.328Z,16204.00
2018-05-12T10:11:17.526Z,20224.00
2018-05-12T10:12:17.724Z,20192.00
2018-05-12T10:13:17.926Z,20576.00
2018-05-12T10:14:18.123Z,19296.00
2018-05-12T10:15:18.328Z,20128.00
2018-05-12T10:16:18.524Z,21120.00
2018-05-12T10:17:18.721Z,21216.00
2018-05-12T10:18:18.920Z,19904.00
2018-05-12T10:19:19.147Z,19104.00
2018-05-12T10:20:19.368Z,18560.00
2018-05-12T10:21:19.517Z,17572.00
2018-05-12T10:22:19.715Z,16848.00
2018-05-12T10:23:19.914Z,17080.00
2018-05-12T10:24:20.111Z,17336.00
2018-05-12T10:25:20.310Z,18464.00
2018-05-12T10:26:20.583Z,19264.00
2018-05-12T10:27:20.706Z,18368.00
2018-05-12T10:28:20.905Z,18688.00
2018-05-12T10:29:21.104Z,19104.00
2018-05-12T10:30:21.301Z,19232.00
2018-05-12T10:31:21.501Z,18656.00
2018-05-12T10:32:21.697Z,17648.00
2018-05-12T10:33:21.894Z,17144.00
2018-05-12T10:34:22.093Z,16884.00
2018-05-12T10:35:22.289Z,16668.00
2018-05-12T10:36:22.489Z,17116.00
2018-05-12T10:37:22.684Z,19200.00
2018-05-12T10:38:22.883Z,19488.00
2018-05-12T10:39:23.080Z,18880.00
2018-05-12T10:40:23.278Z,19008.00
2018-05-12T10:41:23.476Z,17208.00
2018-05-12T10:42:23.673Z,17300.00
2018-05-12T10:43:23.873Z,18272.00
2018-05-12T10:44:24.067Z,17104.00
2018-05-12T10:45:24.281Z,16472.00
2018-05-12T10:46:24.464Z,16256.00
2018-05-12T10:47:24.660Z,16400.00
2018-05-12T10:48:24.859Z,16296.00
2018-05-12T10:49:25.086Z,16532.00
2018-05-12T10:50:25.253Z,17504.00
2018-05-12T10:51:25.451Z,18144.00
2018-05-12T10:52:25.648Z,18336.00
2018-05-12T10:53:25.845Z,18048.00
2018-05-12T10:54:26.063Z,15696.00
2018-05-12T10:55:26.263Z,15316.00
2018-05-12T10:56:26.457Z,16660.00
2018-05-12T10:57:26.654Z,16504.00
2018-05-12T10:58:26.850Z,16984.00
2018-05-12T10:59:27.047Z,17312.00
2018-05-12T11:00:27.245Z,16812.00
2018-05-12T11:01:27.440Z,17088.00
2018-05-12T11:02:27.640Z,17100.00
2018-05-12T11:03:27.839Z,17036.00
2018-05-12T11:04:28.031Z,15724.00
2018-05-12T11:05:28.229Z,15832.00
2018-05-12T11:06:28.426Z,14720.00
2018-05-12T11:07:28.620Z,14328.00
2018-05-12T11:08:28.821Z,15016.00
2018-05-12T11:09:29.015Z,15540.00
2018-05-12T11:10:29.219Z,15824.00
2018-05-12T11:11:29.411Z,16232.00
2018-05-12T11:12:29.606Z,16496.00
2018-05-12T11:13:29.804Z,16152.00
2018-05-12T11:14:30.001Z,16080.00
2018-05-12T11:15:30.199Z,15004.00
2018-05-12T11:16:30.407Z,15196.00
2018-05-12T11:17:30.594Z,14296.00
2018-05-12T11:18:30.790Z,13724.00
2018-05-12T11:19:30.989Z,13620.00
2018-05-12T11:20:31.183Z,14108.00
2018-05-12T11:21:31.410Z,13788.00
2018-05-12T11:22:31.577Z,13716.00
2018-05-12T11:23:31.773Z,13924.00
2018-05-12T11:24:31.972Z,14004.00
2018-05-12T11:25:32.169Z,13624.00
2018-05-12T11:26:32.369Z,12888.00
2018-05-12T11:27:32.561Z,12816.00
2018-05-12T11:28:32.757Z,13160.00
2018-05-12T11:29:32.953Z,13596.00
2018-05-12T11:30:33.151Z,13936.00
2018-05-12T11:31:33.349Z,14180.00
2018-05-12T11:32:33.540Z,13488.00
2018-05-12T11:33:33.737Z,13128.00
2018-05-12T11:34:33.937Z,12928.00
2018-05-12T11:35:34.130Z,12792.00
2018-05-12T11:36:34.325Z,13192.00
2018-05-12T11:37:34.520Z,13468.00
2018-05-12T11:38:34.718Z,13648.00
2018-05-12T11:39:34.914Z,13144.00
2018-05-12T11:40:35.110Z,12656.00
2018-05-12T11:41:35.307Z,12516.00
2018-05-12T11:42:35.509Z,11852.00
2018-05-12T11:43:35.720Z,13020.00
2018-05-12T11:44:36.017Z,12844.00
2018-05-12T11:45:36.111Z,13808.00
2018-05-12T11:46:36.306Z,12712.00
2018-05-12T11:47:36.502Z,12348.00
2018-05-12T11:48:36.701Z,12312.00
2018-05-12T11:49:36.897Z,12580.00
2018-05-12T11:50:37.094Z,13180.00
2018-05-12T11:51:37.289Z,13368.00
2018-05-12T11:52:37.484Z,13364.00
2018-05-12T11:53:37.684Z,13384.00
2018-05-12T11:54:37.878Z,13136.00
2018-05-12T11:55:38.074Z,12936.00
2018-05-12T11:56:38.268Z,12636.00
2018-05-12T11:57:38.465Z,12156.00
2018-05-12T11:58:38.661Z,11544.00
2018-05-12T11:59:38.856Z,11040.00
2018-05-12T12:00:39.052Z,10740.00
2018-05-12T12:01:39.252Z,10536.00
2018-05-12T12:02:39.446Z,10288.00
2018-05-12T12:03:39.684Z,10032.00
2018-05-12T12:04:39.840Z,9816.00
2018-05-12T12:05:40.036Z,9644.00
2018-05-12T12:06:40.231Z,9444.00
2018-05-12T12:07:40.425Z,9272.00
2018-05-12T12:08:40.623Z,9156.00